createdAt,value
2018-02-10T00:01:37.449Z,2.40
2018-02-10T00:04:05.189Z,2.40
2018-02-10T00:06:32.913Z,2.40
2018-02-10T00:09:00.633Z,2.40
2018-02-10T00:11:28.342Z,2.40
2018-02-10T00:13:56.075Z,2.20
2018-02-10T00:16:24.553Z,2.20
2018-02-10T00:18:52.266Z,2.20
2018-02-10T00:21:19.994Z,2.30
2018-02-10T00:23:48.726Z,2.20
2018-02-10T00:26:17.224Z,2.20
2018-02-10T00:28:45.089Z,2.10
2018-02-10T00:31:12.956Z,2.20
2018-02-10T00:33:40.754Z,2.20
2018-02-10T00:36:09.237Z,2.30
2018-02-10T00:38:37.782Z,2.40
2018-02-10T00:41:05.654Z,2.30
2018-02-10T00:43:33.521Z,2.10
2018-02-10T00:46:01.307Z,1.90
2018-02-10T00:48:29.021Z,2.00
2018-02-10T00:50:56.817Z,2.10
2018-02-10T00:53:24.684Z,2.10
2018-02-10T00:55:52.551Z,1.90
2018-02-10T00:58:21.034Z,1.60
2018-02-10T01:00:48.762Z,1.60
2018-02-10T01:03:16.485Z,1.40
2018-02-10T01:05:44.205Z,1.30
2018-02-10T01:08:11.927Z,1.40
2018-02-10T01:10:40.574Z,1.70
2018-02-10T01:13:08.440Z,1.60
2018-02-10T01:15:36.205Z,1.70
2018-02-10T01:18:04.073Z,1.60
2018-02-10T01:20:31.933Z,1.60
2018-02-10T01:23:00.559Z,1.40
2018-02-10T01:25:29.211Z,1.40
2018-02-10T01:27:57.078Z,1.40
2018-02-10T01:30:24.797Z,1.60
2018-02-10T01:32:52.606Z,1.60
2018-02-10T01:35:20.476Z,1.60
2018-02-10T01:37:48.342Z,1.60
2018-02-10T01:40:16.209Z,1.70
2018-02-10T01:42:43.974Z,1.80
2018-02-10T01:45:11.842Z,1.60
2018-02-10T01:47:39.708Z,1.50
2018-02-10T01:50:19.352Z,1.50
2018-02-10T01:52:47.109Z,1.50
2018-02-10T01:55:14.886Z,1.40
2018-02-10T01:57:42.606Z,1.40
2018-02-10T02:00:10.355Z,1.50
2018-02-10T02:02:38.838Z,1.50
2018-02-10T02:05:06.760Z,1.50
2018-02-10T02:07:34.677Z,1.40
2018-02-10T02:10:03.172Z,1.60
2018-02-10T02:12:30.903Z,1.60
2018-02-10T02:14:58.616Z,1.60
2018-02-10T02:17:26.325Z,1.50
2018-02-10T02:19:54.168Z,1.50
2018-02-10T02:22:22.038Z,1.80
2018-02-10T02:24:49.904Z,2.00
2018-02-10T02:27:17.770Z,2.10
2018-02-10T02:29:45.638Z,2.20
2018-02-10T02:32:13.508Z,2.20
2018-02-10T02:34:41.373Z,2.30
2018-02-10T02:37:09.093Z,2.40
2018-02-10T02:39:36.902Z,2.40
2018-02-10T02:42:04.871Z,2.50
2018-02-10T02:44:33.558Z,2.40
2018-02-10T02:47:01.278Z,2.40
2018-02-10T02:49:29.088Z,2.50
2018-02-10T02:51:56.809Z,2.20
2018-02-10T02:54:24.523Z,1.90
2018-02-10T02:56:52.246Z,1.50
2018-02-10T02:59:20.045Z,1.50
2018-02-10T03:01:47.912Z,1.40
2018-02-10T03:04:17.451Z,1.80
2018-02-10T03:06:45.934Z,1.90
2018-02-10T03:09:14.417Z,2.00
2018-02-10T03:11:42.908Z,2.10
2018-02-10T03:14:11.550Z,2.20
2018-02-10T03:16:39.417Z,2.20
2018-02-10T03:19:07.284Z,2.20
2018-02-10T03:21:35.868Z,2.30
2018-02-10T03:24:03.736Z,2.30
2018-02-10T03:26:31.607Z,2.40
2018-02-10T03:28:59.318Z,2.40
2018-02-10T03:31:27.037Z,2.50
2018-02-10T03:33:54.761Z,2.60
2018-02-10T03:36:22.480Z,2.60
2018-02-10T03:38:50.197Z,2.70
2018-02-10T03:41:17.986Z,2.70
2018-02-10T03:43:45.856Z,2.70
2018-02-10T03:46:13.721Z,2.70
2018-02-10T03:48:41.446Z,2.80
2018-02-10T03:51:09.208Z,2.80
2018-02-10T03:53:36.925Z,2.80
2018-02-10T03:56:04.781Z,2.80
2018-02-10T03:58:32.648Z,2.80
2018-02-10T04:01:00.383Z,2.70
2018-02-10T04:03:28.098Z,2.70
2018-02-10T04:05:55.942Z,2.70
2018-02-10T04:08:23.811Z,2.70
2018-02-10T04:10:51.678Z,2.70
2018-02-10T04:13:19.401Z,2.60
2018-02-10T04:15:47.121Z,2.70
2018-02-10T04:18:14.881Z,2.70
2018-02-10T04:20:42.606Z,2.70
2018-02-10T04:23:10.322Z,2.60
2018-02-10T04:25:38.164Z,2.60
2018-02-10T04:28:06.032Z,2.60
2018-02-10T04:30:33.899Z,2.40
2018-02-10T04:33:01.767Z,2.50
2018-02-10T04:35:29.634Z,2.50
2018-02-10T04:37:57.501Z,2.50
2018-02-10T04:40:25.368Z,2.40
2018-02-10T04:42:53.241Z,2.30
2018-02-10T04:45:21.105Z,2.40
2018-02-10T04:47:48.901Z,2.50
2018-02-10T04:52:51.285Z,2.40
2018-02-10T04:55:19.005Z,2.50
2018-02-10T04:57:46.890Z,2.50
2018-02-10T05:00:14.758Z,2.50
2018-02-10T05:02:42.626Z,2.60
2018-02-10T05:05:10.496Z,2.60
2018-02-10T05:07:38.337Z,2.70
2018-02-10T05:10:06.057Z,2.70
2018-02-10T05:12:34.709Z,2.80
2018-02-10T05:15:02.576Z,2.70
2018-02-10T05:17:32.135Z,2.80
2018-02-10T05:20:01.679Z,2.90
2018-02-10T05:22:30.250Z,2.90
2018-02-10T05:24:59.865Z,2.90
2018-02-10T05:27:28.688Z,3.00
2018-02-10T05:29:56.538Z,3.00
2018-02-10T05:32:24.406Z,3.00
2018-02-10T05:34:52.273Z,3.00
2018-02-10T05:37:20.041Z,3.00
2018-02-10T05:39:47.758Z,2.90
2018-02-10T05:42:15.485Z,2.90
2018-02-10T05:44:43.369Z,2.90
2018-02-10T05:47:12.019Z,2.90
2018-02-10T05:49:39.892Z,2.80
2018-02-10T05:52:07.754Z,2.90
2018-02-10T05:54:35.621Z,2.90
2018-02-10T05:57:03.489Z,2.80
2018-02-10T05:59:31.569Z,2.80
2018-02-10T06:02:09.148Z,2.80
2018-02-10T06:05:06.498Z,2.70
2018-02-10T06:07:36.667Z,2.70
2018-02-10T06:10:06.598Z,2.70
2018-02-10T06:12:37.048Z,2.50
2018-02-10T06:15:06.715Z,2.50
2018-02-10T06:17:34.556Z,2.50
2018-02-10T06:20:02.426Z,2.50
2018-02-10T06:22:30.395Z,2.30
2018-02-10T06:24:59.157Z,2.20
2018-02-10T06:27:26.952Z,2.10
2018-02-10T06:29:54.972Z,2.10
2018-02-10T06:32:24.116Z,2.00
2018-02-10T06:34:56.114Z,2.00
2018-02-10T06:37:27.206Z,2.00
2018-02-10T06:39:58.525Z,2.00
2018-02-10T06:42:29.069Z,2.10
2018-02-10T06:44:57.073Z,2.10
2018-02-10T06:47:24.939Z,2.10
2018-02-10T06:49:52.806Z,2.10
2018-02-10T06:52:20.526Z,2.10
2018-02-10T06:54:48.440Z,2.20
2018-02-10T06:57:16.307Z,2.10
2018-02-10T06:59:44.976Z,2.10
2018-02-10T07:02:12.685Z,2.10
2018-02-10T07:04:40.523Z,2.10
2018-02-10T07:07:08.388Z,2.20
2018-02-10T07:09:36.255Z,2.30
2018-02-10T07:12:03.978Z,2.30
2018-02-10T07:14:31.702Z,2.30
2018-02-10T07:16:59.415Z,2.30
2018-02-10T07:19:27.212Z,2.30
2018-02-10T07:21:55.081Z,2.30
2018-02-10T07:24:22.948Z,2.30
2018-02-10T07:26:50.670Z,2.30
2018-02-10T07:29:18.477Z,2.30
2018-02-10T07:31:46.344Z,2.40
2018-02-10T07:34:14.213Z,2.40
2018-02-10T07:36:41.942Z,2.40
2018-02-10T07:39:09.665Z,2.50
2018-02-10T07:41:37.392Z,2.50
2018-02-10T07:44:05.275Z,2.60
2018-02-10T07:46:33.138Z,2.60
2018-02-10T07:49:01.006Z,2.70
2018-02-10T07:51:28.873Z,2.70
2018-02-10T07:53:56.647Z,2.60
2018-02-10T07:56:24.402Z,2.60
2018-02-10T07:58:52.272Z,2.60
2018-02-10T08:01:20.005Z,2.60
2018-02-10T08:03:47.729Z,2.60
2018-02-10T08:06:16.385Z,2.60
2018-02-10T08:08:44.251Z,2.60
2018-02-10T08:11:12.054Z,2.60
2018-02-10T08:13:39.883Z,2.60
2018-02-10T08:16:07.751Z,2.60
2018-02-10T08:18:35.477Z,2.60
2018-02-10T08:21:03.898Z,2.60
2018-02-10T08:23:31.762Z,2.60
2018-02-10T08:25:59.628Z,2.70
2018-02-10T08:28:27.497Z,2.70
2018-02-10T08:30:55.363Z,2.70
2018-02-10T08:33:23.088Z,2.70
2018-02-10T08:35:50.893Z,2.80
2018-02-10T08:38:18.628Z,2.80
2018-02-10T08:40:46.424Z,2.80
2018-02-10T08:43:14.291Z,2.80
2018-02-10T08:45:42.009Z,2.90
2018-02-10T08:48:10.639Z,2.90
2018-02-10T08:50:38.509Z,2.90
2018-02-10T08:53:06.373Z,2.90
2018-02-10T08:55:34.241Z,2.90
2018-02-10T08:58:02.109Z,2.80
2018-02-10T09:00:29.975Z,2.90
2018-02-10T09:02:57.846Z,2.90
2018-02-10T09:05:25.709Z,2.90
2018-02-10T09:07:53.578Z,3.00
2018-02-10T09:10:21.294Z,3.00
2018-02-10T09:12:49.790Z,3.10
2018-02-10T09:15:17.509Z,3.10
2018-02-10T09:17:45.224Z,3.20
2018-02-10T09:20:13.047Z,3.30
2018-02-10T09:22:40.766Z,3.30
2018-02-10T09:25:08.487Z,3.20
2018-02-10T09:27:37.063Z,3.30
2018-02-10T09:30:05.817Z,3.30
2018-02-10T09:32:33.683Z,3.30
2018-02-10T09:35:01.552Z,3.30
2018-02-10T09:37:29.418Z,3.40
2018-02-10T09:39:57.313Z,3.50
2018-02-10T09:42:25.972Z,3.70
2018-02-10T09:44:53.839Z,3.60
2018-02-10T09:47:21.707Z,3.60
2018-02-10T09:49:49.574Z,3.70
2018-02-10T09:52:17.441Z,3.60
2018-02-10T09:54:45.308Z,3.60
2018-02-10T09:57:13.026Z,3.70
2018-02-10T09:59:40.753Z,3.70
2018-02-10T10:02:08.485Z,3.70
2018-02-10T10:04:36.202Z,3.70
2018-02-10T10:07:04.686Z,3.80
2018-02-10T10:09:33.332Z,3.80
2018-02-10T10:12:01.198Z,3.80
2018-02-10T10:14:29.065Z,3.80
2018-02-10T10:16:56.781Z,3.90
2018-02-10T10:19:25.415Z,4.10
2018-02-10T10:21:53.284Z,4.10
2018-02-10T10:24:21.006Z,4.10
2018-02-10T10:26:48.814Z,4.00
2018-02-10T10:29:16.678Z,4.10
2018-02-10T10:31:44.546Z,4.10
2018-02-10T10:34:12.414Z,4.20
2018-02-10T10:36:40.281Z,4.20
2018-02-10T10:39:08.169Z,4.20
2018-02-10T10:41:36.835Z,4.20
2018-02-10T10:44:04.752Z,4.20
2018-02-10T10:46:33.388Z,4.30
2018-02-10T10:49:01.100Z,4.30
2018-02-10T10:51:29.622Z,4.50
2018-02-10T10:53:57.506Z,4.50
2018-02-10T10:56:25.470Z,4.60
2018-02-10T10:58:53.339Z,4.50
2018-02-10T11:01:21.206Z,4.50
2018-02-10T11:03:49.074Z,4.50
2018-02-10T11:06:16.830Z,4.50
2018-02-10T11:08:44.603Z,4.50
2018-02-10T11:11:12.471Z,4.50
2018-02-10T11:13:40.337Z,4.50
2018-02-10T11:16:08.206Z,4.50
2018-02-10T11:18:36.075Z,4.40
2018-02-10T11:21:04.657Z,4.50
2018-02-10T11:23:32.523Z,4.50
2018-02-10T11:26:00.596Z,4.50
2018-02-10T11:28:29.691Z,4.60
2018-02-10T11:30:57.558Z,4.60
2018-02-10T11:33:25.277Z,4.60
2018-02-10T11:35:53.754Z,4.80
2018-02-10T11:38:22.391Z,4.80
2018-02-10T11:40:50.257Z,4.80
2018-02-10T11:43:17.972Z,4.70
2018-02-10T11:45:46.605Z,4.70
2018-02-10T11:48:14.473Z,4.70
2018-02-10T11:50:42.341Z,4.70
2018-02-10T11:53:10.207Z,4.70
2018-02-10T11:55:37.972Z,4.60
2018-02-10T11:58:05.842Z,4.60
2018-02-10T12:00:33.707Z,4.50
2018-02-10T12:03:01.575Z,4.40
2018-02-10T12:05:29.443Z,4.50
2018-02-10T12:07:58.129Z,4.40
2018-02-10T12:10:25.995Z,4.40
2018-02-10T12:12:53.863Z,4.50
2018-02-10T12:15:21.730Z,4.40
2018-02-10T12:17:49.597Z,4.40
2018-02-10T12:20:17.467Z,4.40
2018-02-10T12:22:45.336Z,4.40
2018-02-10T12:25:13.202Z,4.40
2018-02-10T12:27:41.071Z,4.40
2018-02-10T12:30:08.934Z,4.40
2018-02-10T12:32:36.800Z,4.40
2018-02-10T12:35:04.517Z,4.40
2018-02-10T12:37:32.993Z,4.40
2018-02-10T12:40:01.476Z,4.40
2018-02-10T12:42:30.116Z,4.40
2018-02-10T12:44:57.980Z,4.40
2018-02-10T12:47:25.848Z,4.40
2018-02-10T12:49:53.715Z,4.50
2018-02-10T12:52:21.582Z,4.50
2018-02-10T12:54:49.452Z,4.50
2018-02-10T12:57:17.317Z,4.50
2018-02-10T12:59:45.183Z,4.50
2018-02-10T13:02:14.642Z,4.40
2018-02-10T13:04:42.556Z,4.40
2018-02-10T13:07:11.243Z,4.40
2018-02-10T13:09:39.111Z,4.40
2018-02-10T13:12:06.977Z,4.40
2018-02-10T13:14:34.845Z,4.30
2018-02-10T13:17:02.713Z,4.30
2018-02-10T13:19:30.579Z,4.40
2018-02-10T13:21:58.464Z,4.40
2018-02-10T13:24:26.417Z,4.40
2018-02-10T13:26:54.733Z,4.60
2018-02-10T13:29:23.380Z,4.70
2018-02-10T13:31:51.177Z,4.70
2018-02-10T13:34:19.014Z,4.80
2018-02-10T13:36:46.884Z,4.60
2018-02-10T13:39:14.747Z,4.50
2018-02-10T13:41:42.470Z,4.50
2018-02-10T13:44:10.277Z,4.50
2018-02-10T13:46:38.074Z,4.50
2018-02-10T13:49:05.909Z,4.60
2018-02-10T13:51:33.777Z,4.60
2018-02-10T13:54:01.649Z,4.60
2018-02-10T13:56:29.512Z,4.60
2018-02-10T13:58:57.252Z,4.50
2018-02-10T14:01:27.590Z,4.50
2018-02-10T14:03:55.775Z,4.50
2018-02-10T14:06:23.745Z,4.50
2018-02-10T14:08:54.219Z,4.50
2018-02-10T14:11:24.605Z,4.50
2018-02-10T14:14:17.442Z,4.40
2018-02-10T14:16:47.862Z,4.40
2018-02-10T14:19:19.062Z,4.30
2018-02-10T14:21:47.461Z,4.30
2018-02-10T14:24:16.306Z,4.20
2018-02-10T14:26:46.384Z,4.10
2018-02-10T14:29:14.384Z,4.20
2018-02-10T14:31:42.115Z,4.20
2018-02-10T14:34:09.838Z,4.10
2018-02-10T14:36:37.553Z,4.10
2018-02-10T14:39:05.298Z,4.20
2018-02-10T14:41:33.108Z,4.20
2018-02-10T14:44:00.844Z,4.20
2018-02-10T14:46:28.739Z,4.30
2018-02-10T14:48:56.469Z,4.30
2018-02-10T14:51:24.269Z,4.30
2018-02-10T14:53:52.237Z,4.30
2018-02-10T14:56:20.724Z,4.50
2018-02-10T14:58:48.442Z,4.40
2018-02-10T15:01:16.157Z,4.50
2018-02-10T15:03:43.913Z,4.50
2018-02-10T15:06:11.779Z,4.60
2018-02-10T15:08:39.647Z,4.60
2018-02-10T15:11:07.373Z,4.60
2018-02-10T15:13:35.088Z,4.60
2018-02-10T15:16:02.810Z,4.60
2018-02-10T15:18:30.526Z,4.60
2018-02-10T15:20:58.267Z,4.50
2018-02-10T15:23:26.138Z,4.60
2018-02-10T15:25:54.001Z,4.60
2018-02-10T15:28:21.730Z,4.60
2018-02-10T15:31:01.410Z,4.70
2018-02-10T15:33:41.053Z,4.70
2018-02-10T15:36:08.920Z,4.70
2018-02-10T15:38:36.788Z,4.60
2018-02-10T15:41:04.654Z,4.50
2018-02-10T15:43:32.523Z,4.50
2018-02-10T15:46:00.290Z,4.50
2018-02-10T15:48:28.155Z,4.50
2018-02-10T15:50:56.022Z,4.50
2018-02-10T15:53:23.889Z,4.50
2018-02-10T15:55:51.761Z,4.50
2018-02-10T15:58:20.296Z,4.40
2018-02-10T16:00:48.021Z,4.40
2018-02-10T16:03:15.875Z,4.40
2018-02-10T16:05:43.598Z,4.40
2018-02-10T16:08:11.400Z,4.40
2018-02-10T16:10:39.118Z,4.40
2018-02-10T16:13:06.830Z,4.40
2018-02-10T16:15:34.559Z,4.40
2018-02-10T16:18:02.362Z,4.40
2018-02-10T16:20:30.124Z,4.40
2018-02-10T16:22:57.989Z,4.40
2018-02-10T16:25:25.858Z,4.40
2018-02-10T16:27:53.654Z,4.40
2018-02-10T16:30:22.310Z,4.50
2018-02-10T16:32:50.178Z,4.40
2018-02-10T16:35:18.046Z,4.50
2018-02-10T16:37:45.913Z,4.40
2018-02-10T16:40:13.781Z,4.40
2018-02-10T16:42:41.649Z,4.40
2018-02-10T16:45:09.520Z,4.40
2018-02-10T16:47:37.380Z,4.30
2018-02-10T16:50:05.100Z,4.30
2018-02-10T16:52:32.910Z,4.30
2018-02-10T16:55:00.714Z,4.30
2018-02-10T16:57:29.396Z,4.30
2018-02-10T16:59:58.051Z,4.30
2018-02-10T17:02:31.859Z,4.30
2018-02-10T17:04:59.620Z,4.30
2018-02-10T17:07:27.488Z,4.40
2018-02-10T17:09:55.802Z,4.30
2018-02-10T17:12:24.654Z,4.30
2018-02-10T17:14:53.340Z,4.30
2018-02-10T17:17:21.208Z,4.30
2018-02-10T17:19:49.074Z,4.20
2018-02-10T17:22:16.948Z,4.20
2018-02-10T17:24:44.809Z,4.20
2018-02-10T17:27:12.882Z,4.20
2018-02-10T17:29:41.165Z,4.20
2018-02-10T17:32:09.484Z,4.20
2018-02-10T17:34:38.125Z,4.10
2018-02-10T17:37:05.835Z,4.10
2018-02-10T17:39:34.346Z,4.10
2018-02-10T17:42:02.133Z,4.10
2018-02-10T17:44:31.641Z,4.10
2018-02-10T17:46:59.609Z,4.20
2018-02-10T17:49:29.044Z,4.20
2018-02-10T17:51:56.881Z,4.20
2018-02-10T17:54:25.054Z,4.20
2018-02-10T17:56:53.126Z,4.10
2018-02-10T17:59:20.994Z,4.10
2018-02-10T18:01:49.522Z,4.10
2018-02-10T18:04:19.857Z,4.10
2018-02-10T18:06:48.187Z,4.10
2018-02-10T18:09:16.047Z,4.10
2018-02-10T18:11:43.915Z,4.20
2018-02-10T18:14:11.781Z,4.20
2018-02-10T18:16:39.650Z,4.20
2018-02-10T18:19:07.522Z,4.30
2018-02-10T18:21:35.386Z,4.30
2018-02-10T18:24:03.354Z,4.20
2018-02-10T18:26:31.221Z,4.10
2018-02-10T18:28:59.089Z,4.00
2018-02-10T18:31:26.955Z,4.00
2018-02-10T18:33:54.823Z,4.00
2018-02-10T18:36:22.692Z,3.90
2018-02-10T18:38:50.558Z,3.90
2018-02-10T18:41:18.425Z,4.00
2018-02-10T18:43:46.221Z,3.90
2018-02-10T18:46:13.947Z,3.90
2018-02-10T18:48:41.658Z,4.00
2018-02-10T18:51:10.224Z,4.10
2018-02-10T18:53:38.069Z,4.10
2018-02-10T18:56:05.936Z,4.10
2018-02-10T18:58:33.803Z,4.20
2018-02-10T19:01:03.589Z,4.20
2018-02-10T19:03:31.483Z,4.30
2018-02-10T19:05:59.351Z,4.30
2018-02-10T19:08:27.060Z,4.30
2018-02-10T19:10:55.574Z,4.20
2018-02-10T19:13:23.282Z,4.20
2018-02-10T19:15:50.995Z,4.10
2018-02-10T19:18:18.759Z,4.00
2018-02-10T19:20:46.657Z,4.00
2018-02-10T19:23:14.524Z,4.00
2018-02-10T19:25:42.391Z,4.00
2018-02-10T19:28:10.189Z,3.90
2018-02-10T19:30:37.925Z,3.90
2018-02-10T19:33:05.789Z,3.90
2018-02-10T19:35:33.502Z,3.90
2018-02-10T19:38:01.981Z,3.80
2018-02-10T19:40:30.452Z,3.90
2018-02-10T19:42:59.307Z,3.80
2018-02-10T19:45:27.009Z,3.80
2018-02-10T19:47:55.656Z,3.80
2018-02-10T19:50:23.522Z,3.80
2018-02-10T19:52:55.121Z,3.70
2018-02-10T19:55:26.185Z,3.70
2018-02-10T19:58:34.178Z,3.70
2018-02-10T20:01:02.654Z,3.70
2018-02-10T20:03:31.157Z,3.60
2018-02-10T20:05:58.876Z,3.60
2018-02-10T20:08:26.666Z,3.70
2018-02-10T20:10:55.258Z,3.60
2018-02-10T20:13:23.122Z,3.60
2018-02-10T20:15:51.654Z,3.60
2018-02-10T20:18:19.522Z,3.60
2018-02-10T20:20:47.390Z,3.60
2018-02-10T20:23:15.257Z,3.60
2018-02-10T20:25:43.124Z,3.60
2018-02-10T20:28:10.991Z,3.60
2018-02-10T20:30:38.860Z,3.60
2018-02-10T20:33:06.726Z,3.60
2018-02-10T20:35:34.594Z,3.60
2018-02-10T20:38:02.461Z,3.60
2018-02-10T20:40:30.328Z,3.60
2018-02-10T20:42:58.196Z,3.60
2018-02-10T20:45:25.897Z,3.60
2018-02-10T20:47:54.370Z,3.60
2018-02-10T20:50:22.207Z,3.60
2018-02-10T20:52:50.110Z,3.60
2018-02-10T20:55:18.594Z,3.70
2018-02-10T20:57:47.074Z,3.70
2018-02-10T21:00:15.545Z,3.70
2018-02-10T21:02:43.386Z,3.70
2018-02-10T21:05:11.254Z,3.70
2018-02-10T21:07:39.121Z,3.70
2018-02-10T21:10:06.854Z,3.70
2018-02-10T21:12:34.569Z,3.80
2018-02-10T21:15:02.285Z,3.80
2018-02-10T21:17:29.993Z,3.80
2018-02-10T21:19:57.844Z,3.80
2018-02-10T21:22:25.711Z,3.80
2018-02-10T21:24:53.578Z,3.80
2018-02-10T21:27:21.446Z,3.80
2018-02-10T21:29:49.313Z,3.70
2018-02-10T21:32:17.113Z,3.70
2018-02-10T21:34:45.767Z,3.60
2018-02-10T21:37:13.632Z,3.60
2018-02-10T21:39:41.499Z,3.60
2018-02-10T21:42:09.367Z,3.60
2018-02-10T21:44:37.234Z,3.60
2018-02-10T21:47:05.101Z,3.50
2018-02-10T21:49:32.853Z,3.40
2018-02-10T21:52:00.574Z,3.40
2018-02-10T21:54:29.113Z,3.20
2018-02-10T21:56:56.982Z,3.20
2018-02-10T21:59:24.847Z,3.10
2018-02-10T22:01:52.715Z,3.10
2018-02-10T22:04:20.420Z,3.10
2018-02-10T22:06:48.985Z,3.00
2018-02-10T22:09:16.705Z,3.00
2018-02-10T22:11:44.422Z,3.00
2018-02-10T22:14:12.129Z,2.90
2018-02-10T22:16:39.918Z,2.90
2018-02-10T22:19:07.786Z,2.80
2018-02-10T22:21:35.493Z,2.80
2018-02-10T22:24:03.981Z,2.80
2018-02-10T22:26:32.617Z,2.80
2018-02-10T22:29:00.484Z,2.70
2018-02-10T22:31:28.289Z,2.70
2018-02-10T22:33:56.756Z,2.60
2018-02-10T22:36:24.598Z,2.60
2018-02-10T22:38:52.325Z,2.60
2018-02-10T22:41:20.045Z,2.70
2018-02-10T22:43:47.753Z,2.60
2018-02-10T22:46:15.498Z,2.60
2018-02-10T22:48:43.973Z,2.50
2018-02-10T22:51:12.519Z,2.40
2018-02-10T22:53:40.386Z,2.40
2018-02-10T22:56:08.133Z,2.50
2018-02-10T22:58:35.841Z,2.60
2018-02-10T23:01:09.415Z,2.70
2018-02-10T23:03:37.132Z,2.70
2018-02-10T23:06:04.872Z,2.60
2018-02-10T23:08:32.596Z,2.50
2018-02-10T23:11:00.307Z,2.60
2018-02-10T23:13:28.957Z,2.80
2018-02-10T23:15:56.825Z,2.70
2018-02-10T23:18:24.691Z,2.80
2018-02-10T23:20:52.558Z,2.80
2018-02-10T23:23:20.426Z,2.80
2018-02-10T23:25:48.152Z,2.80
2018-02-10T23:28:15.866Z,2.70
2018-02-10T23:30:43.618Z,2.80
2018-02-10T23:33:11.486Z,2.80
2018-02-10T23:35:39.353Z,2.70
2018-02-10T23:38:07.220Z,2.70
2018-02-10T23:40:35.087Z,2.70
2018-02-10T23:43:02.956Z,2.60
2018-02-10T23:45:30.822Z,2.70
2018-02-10T23:47:58.689Z,2.80
2018-02-10T23:50:26.557Z,2.80
2018-02-10T23:52:54.268Z,2.60
2018-02-10T23:55:22.753Z,2.60
2018-02-10T23:57:51.388Z,2.70
